Time;durP1;ratioP1;P1;durP2;ratioP2;P2;SDS_P1;SDS_P2;PMS_P1;PMS_P2;Temp;Humidity;BMP_temperature;BMP_pressure;BME280_temperature;BME280_humidity;BME280_pressure;Samples;Min_cycle;Max_cycle;Signal;HPM_P1;HPM_P2
2021/09/27 00:01:28;;;;;;;1.83;1.10;;;;;;;9.00;81.96;100608.11;1743294;81;21879;-66
2021/09/27 00:04:07;;;;;;;2.77;1.20;;;;;;;8.99;81.98;100618.19;1756046;81;21817;-66
2021/09/27 00:06:40;;;;;;;5.75;1.17;;;;;;;8.96;82.02;100615.33;1752911;80;21318;-66
2021/09/27 00:09:16;;;;;;;2.33;1.22;;;;;;;8.95;82.15;100618.07;1746561;80;21712;-63
2021/09/27 00:11:55;;;;;;;1.32;1.10;;;;;;;8.94;82.25;100616.39;1735991;82;21134;-63
2021/09/27 00:14:32;;;;;;;1.62;1.10;;;;;;;8.93;82.30;100615.59;1758717;81;21700;-62
2021/09/27 00:17:07;;;;;;;2.47;1.00;;;;;;;8.92;82.38;100616.52;1754034;81;21179;-64
2021/09/27 00:19:42;;;;;;;1.50;1.00;;;;;;;8.92;82.49;100615.69;1762395;81;21306;-65
2021/09/27 00:22:16;;;;;;;1.15;1.05;;;;;;;8.92;82.52;100617.83;1762822;81;21691;-66
2021/09/27 00:24:51;;;;;;;1.47;0.95;;;;;;;8.92;82.63;100620.44;1757169;81;21280;-65
2021/09/27 00:27:24;;;;;;;4.58;1.00;;;;;;;8.99;82.71;100629.94;1730115;82;21276;-64
2021/09/27 00:30:00;;;;;;;1.15;1.05;;;;;;;9.06;82.73;100628.52;1732316;83;21882;-64
2021/09/27 00:32:33;;;;;;;3.08;1.27;;;;;;;9.17;82.71;100627.23;1730953;82;21620;-65
2021/09/27 00:35:07;;;;;;;4.58;1.50;;;;;;;9.28;82.66;100633.77;1732995;82;21288;-64
2021/09/27 00:37:46;;;;;;;3.40;1.30;;;;;;;9.38;82.50;100635.56;1740325;81;21227;-65
2021/09/27 00:40:33;;;;;;;3.62;1.32;;;;;;;9.47;82.21;100633.53;1737168;81;21140;-66
2021/09/27 00:43:19;;;;;;;1.80;1.20;;;;;;;9.49;81.85;100635.55;1747319;80;21216;-65
2021/09/27 00:45:58;;;;;;;2.37;1.27;;;;;;;9.45;81.62;100632.83;1761260;81;21310;-65
2021/09/27 00:48:37;;;;;;;1.42;1.22;;;;;;;9.38;81.48;100625.11;1760434;81;21286;-65
2021/09/27 00:51:22;;;;;;;3.42;1.22;;;;;;;9.31;81.46;100629.12;1760950;81;21194;-64
2021/09/27 00:54:01;;;;;;;1.57;1.07;;;;;;;9.25;81.46;100626.99;1725168;82;21147;-66
2021/09/27 00:56:52;;;;;;;3.00;1.22;;;;;;;9.20;81.49;100629.12;1747354;80;21757;-65
2021/09/27 00:59:27;;;;;;;1.72;1.00;;;;;;;9.15;81.51;100627.81;1749751;80;21304;-65
2021/09/27 01:02:05;;;;;;;2.87;1.20;;;;;;;9.08;81.55;100623.53;1725345;82;21831;-65
2021/09/27 01:04:40;;;;;;;1.77;1.50;;;;;;;9.02;81.62;100625.33;1756315;81;21217;-66
2021/09/27 01:07:51;;;;;;;1.50;1.30;;;;;;;8.98;81.72;100629.59;1749333;80;21256;-65
2021/09/27 01:10:50;;;;;;;3.00;1.10;;;;;;;8.91;81.83;100631.02;1728106;82;21687;-68
2021/09/27 01:13:56;;;;;;;;;;;;;;;8.86;82.03;100638.36;1736808;82;21165;-66
2021/09/27 01:17:12;;;;;;;1.90;1.20;;;;;;;8.81;82.23;100635.59;1692336;83;20611;-65
2021/09/27 01:20:24;;;;;;;4.08;1.22;;;;;;;8.75;82.49;100641.30;1669319;85;21174;-65
2021/09/27 01:23:26;;;;;;;1.40;1.30;;;;;;;8.73;82.65;100647.58;1732586;81;21286;-65
2021/09/27 01:26:46;;;;;;;2.22;1.17;;;;;;;8.69;82.86;100648.26;1753940;80;21598;-65
2021/09/27 01:29:43;;;;;;;3.25;1.20;;;;;;;8.68;82.98;100651.84;1743297;80;21343;-64
2021/09/27 01:32:34;;;;;;;2.22;1.37;;;;;;;8.65;83.11;100648.61;1752647;80;21204;-64
2021/09/27 01:35:34;;;;;;;1.70;1.17;;;;;;;8.63;83.22;100649.20;1754376;81;21147;-64
2021/09/27 01:38:25;;;;;;;2.83;1.57;;;;;;;8.61;83.37;100651.94;1753384;80;21275;-62
2021/09/27 01:41:37;;;;;;;6.62;2.47;;;;;;;8.61;83.53;100650.63;1698009;82;21279;-62
2021/09/27 01:44:27;;;;;;;5.95;3.50;;;;;;;8.62;83.60;100656.19;1707305;82;21376;-64
2021/09/27 01:47:12;;;;;;;15.55;5.97;;;;;;;8.63;83.64;100647.89;1746576;80;21190;-64
2021/09/27 01:50:05;;;;;;;16.15;6.10;;;;;;;8.63;83.60;100658.33;1742396;81;21291;-64
2021/09/27 01:52:58;;;;;;;5.10;2.98;;;;;;;8.61;83.68;100653.23;1754993;81;21291;-63
2021/09/27 01:55:48;;;;;;;5.15;1.98;;;;;;;8.61;83.76;100657.16;1742862;81;21203;-64
2021/09/27 01:58:49;;;;;;;6.78;2.00;;;;;;;8.59;83.79;100653.83;1747901;80;21310;-63
2021/09/27 02:02:03;;;;;;;2.87;1.30;;;;;;;8.57;83.82;100660.11;1737836;81;21189;-64
2021/09/27 02:04:59;;;;;;;4.03;1.20;;;;;;;8.54;83.99;100662.47;1730822;81;21203;-63
2021/09/27 02:07:42;;;;;;;2.62;1.30;;;;;;;8.54;84.16;100673.38;1762918;81;21217;-63
2021/09/27 02:10:26;;;;;;;2.80;1.30;;;;;;;8.58;84.32;100672.19;1749950;81;21272;-63
2021/09/27 02:13:24;;;;;;;3.02;1.07;;;;;;;8.63;84.43;100670.92;1730298;82;21216;-63
2021/09/27 02:16:04;;;;;;;2.35;1.50;;;;;;;8.71;84.41;100677.72;1722096;82;21231;-64
2021/09/27 02:18:50;;;;;;;3.27;1.37;;;;;;;8.77;84.37;100669.88;1750690;80;21913;-64
2021/09/27 02:21:33;;;;;;;1.37;1.15;;;;;;;8.84;84.35;100672.89;1725218;81;21279;-64
2021/09/27 02:24:22;;;;;;;1.70;1.27;;;;;;;8.91;84.26;100674.09;1746283;81;21276;-65
2021/09/27 02:26:57;;;;;;;2.27;1.32;;;;;;;8.95;84.10;100673.74;1742620;80;21310;-64
2021/09/27 02:29:30;;;;;;;3.90;1.10;;;;;;;8.97;83.89;100676.23;1744710;80;21164;-65
2021/09/27 02:32:16;;;;;;;3.22;1.17;;;;;;;8.99;83.93;100684.77;1759987;80;21284;-65
2021/09/27 02:35:00;;;;;;;1.45;1.05;;;;;;;9.06;83.96;100684.67;1733351;80;21153;-65
2021/09/27 02:38:00;;;;;;;1.55;1.10;;;;;;;9.16;83.90;100692.17;1754778;81;21318;-65
2021/09/27 02:40:55;;;;;;;1.35;1.10;;;;;;;9.25;83.79;100687.08;1752255;80;21195;-64
2021/09/27 02:43:31;;;;;;;1.80;1.22;;;;;;;9.35;83.57;100685.91;1747179;81;21250;-64
2021/09/27 02:46:04;;;;;;;;;;;;;;;9.41;83.23;100686.25;1702322;83;21196;-65
2021/09/27 02:48:40;;;;;;;2.02;1.35;;;;;;;9.43;82.96;100677.81;1712779;83;20275;-64
2021/09/27 02:51:15;;;;;;;1.98;1.20;;;;;;;9.38;82.87;100681.28;1713064;83;21283;-65
2021/09/27 02:53:49;;;;;;;2.58;1.20;;;;;;;9.36;82.78;100690.19;1731094;82;21187;-64
2021/09/27 02:57:05;;;;;;;1.32;1.20;;;;;;;9.31;82.77;100686.59;1712312;84;21723;-64
2021/09/27 03:00:10;;;;;;;2.33;1.22;;;;;;;9.31;82.85;100685.79;1712890;84;21256;-65
2021/09/27 03:02:55;;;;;;;4.58;1.20;;;;;;;9.32;82.94;100692.66;1728865;82;21172;-65
2021/09/27 03:06:02;;;;;;;3.85;1.20;;;;;;;9.34;82.92;100692.90;1726077;82;21180;-64
2021/09/27 03:09:17;;;;;;;4.30;1.50;;;;;;;9.35;82.95;100695.88;1736778;82;21349;-65
2021/09/27 03:12:06;;;;;;;1.57;1.20;;;;;;;9.41;83.11;100697.17;1722539;83;21292;-65
2021/09/27 03:15:08;;;;;;;1.45;1.20;;;;;;;9.51;82.99;100690.30;1755159;80;21339;-65
2021/09/27 03:18:11;;;;;;;2.30;1.17;;;;;;;9.59;82.84;100695.77;1743228;81;21280;-66
2021/09/27 03:21:16;;;;;;;1.67;1.20;;;;;;;9.56;82.51;100690.78;1729978;82;21292;-65
2021/09/27 03:24:13;;;;;;;2.27;1.10;;;;;;;9.52;82.37;100695.89;1702069;82;21259;-65
2021/09/27 03:27:12;;;;;;;3.37;0.90;;;;;;;9.44;82.35;100702.17;1723628;82;21316;-66
2021/09/27 03:29:50;;;;;;;1.70;1.20;;;;;;;9.36;82.45;100694.92;1753764;81;21271;-65
2021/09/27 03:32:42;;;;;;;1.52;1.05;;;;;;;9.36;82.65;100702.76;1741893;80;21155;-65
2021/09/27 03:35:35;;;;;;;1.15;1.05;;;;;;;9.43;82.84;100705.75;1749978;81;21295;-65
2021/09/27 03:38:24;;;;;;;2.15;1.00;;;;;;;9.55;82.89;100710.51;1748592;81;21299;-63
2021/09/27 03:41:42;;;;;;;1.85;1.00;;;;;;;9.68;82.87;100715.13;1753875;81;21252;-63
2021/09/27 03:44:32;;;;;;;1.45;1.30;;;;;;;9.82;82.77;100709.19;1750251;81;21228;-64
2021/09/27 03:47:20;;;;;;;2.70;1.00;;;;;;;9.97;82.59;100714.99;1687163;83;21256;-65
2021/09/27 03:50:18;;;;;;;2.72;1.22;;;;;;;10.09;82.36;100712.72;1703133;83;21296;-66
2021/09/27 03:53:02;;;;;;;2.47;1.35;;;;;;;10.20;82.03;100705.37;1708231;83;21303;-64
2021/09/27 03:56:07;;;;;;;1.40;1.00;;;;;;;10.28;81.69;100706.41;1681046;82;21240;-64
2021/09/27 03:58:49;;;;;;;2.40;1.10;;;;;;;10.36;81.44;100713.17;1728860;81;21711;-65
2021/09/27 04:01:34;;;;;;;1.67;1.07;;;;;;;10.44;81.12;100723.84;1738310;81;21125;-65
2021/09/27 04:04:19;;;;;;;2.10;1.00;;;;;;;10.51;80.83;100715.84;1758313;81;21268;-64
2021/09/27 04:07:30;;;;;;;4.33;1.20;;;;;;;10.61;80.54;100731.16;1722063;82;21287;-67
2021/09/27 04:10:20;;;;;;;1.62;1.10;;;;;;;10.69;80.12;100733.16;1743320;80;21295;-64
2021/09/27 04:13:10;;;;;;;2.17;1.07;;;;;;;10.74;79.69;100737.08;1755547;80;21337;-64
2021/09/27 04:16:19;;;;;;;2.80;1.25;;;;;;;10.85;79.43;100734.87;1756585;80;21897;-64
2021/09/27 04:19:00;;;;;;;1.37;1.27;;;;;;;11.00;79.09;100734.09;1728997;82;21245;-63
2021/09/27 04:21:51;;;;;;;;;;;;;;;11.11;78.54;100729.61;1728878;82;21322;-64
2021/09/27 04:24:53;;;;;;;1.40;1.05;;;;;;;11.15;78.25;100731.52;1697715;82;20260;-63
2021/09/27 04:27:56;;;;;;;1.82;1.17;;;;;;;11.27;78.03;100733.11;1699918;83;21219;-63
2021/09/27 04:30:48;;;;;;;2.90;1.10;;;;;;;12.47;77.38;100727.41;1691698;82;21818;-62
2021/09/27 04:33:34;;;;;;;1.55;1.10;;;;;;;14.16;73.75;100729.98;1695365;83;21203;-64
2021/09/27 04:36:29;;;;;;;2.08;1.10;;;;;;;15.73;69.00;100730.50;1720790;82;21274;-62
2021/09/27 04:39:06;;;;;;;1.32;0.80;;;;;;;16.90;63.78;100725.05;1757772;80;21299;-63
2021/09/27 04:42:08;;;;;;;1.20;0.93;;;;;;;17.65;59.78;100726.97;1754330;80;21699;-63
2021/09/27 04:45:12;;;;;;;1.50;0.90;;;;;;;18.46;56.48;100725.61;1751534;80;21323;-66
2021/09/27 04:48:16;;;;;;;0.80;0.80;;;;;;;19.51;53.20;100735.89;1729824;82;21796;-63
2021/09/27 04:51:28;;;;;;;1.25;0.90;;;;;;;19.77;50.55;100737.09;1719774;82;21219;-67
2021/09/27 04:54:46;;;;;;;2.02;0.80;;;;;;;19.17;50.43;100745.14;1724880;82;21274;-68
2021/09/27 04:57:58;;;;;;;2.60;1.50;;;;;;;18.37;51.25;100737.72;1736622;82;21209;-66
2021/09/27 05:00:37;;;;;;;3.85;3.05;;;;;;;17.54;52.55;100737.41;1727391;82;21759;-69
2021/09/27 05:06:50;;;;;;;2.00;1.50;;;;;;;16.17;55.43;100737.27;1859893;76;22279;-68
2021/09/27 05:10:10;;;;;;;2.67;1.40;;;;;;;15.77;56.41;100746.34;1773278;77;21382;-69
2021/09/27 05:13:33;;;;;;;2.65;1.30;;;;;;;15.40;57.40;100748.73;1817181;77;21412;-67
2021/09/27 05:16:21;;;;;;;3.08;1.42;;;;;;;15.05;58.55;100751.45;1826302;77;21228;-70
2021/09/27 05:19:30;;;;;;;2.33;1.00;;;;;;;14.78;59.83;100743.66;1820825;77;21292;-69
2021/09/27 05:22:39;;;;;;;1.60;0.98;;;;;;;14.61;60.51;100743.99;1816554;77;21755;-67
2021/09/27 05:25:35;;;;;;;3.20;2.08;;;;;;;14.42;61.33;100742.81;1822552;77;21326;-65
2021/09/27 05:28:41;;;;;;;7.08;1.30;;;;;;;14.30;61.76;100747.94;1821707;77;21212;-68
2021/09/27 05:31:58;;;;;;;2.20;1.30;;;;;;;14.20;62.29;100756.34;1811575;77;21382;-63
2021/09/27 05:35:16;;;;;;;2.95;1.57;;;;;;;14.06;62.57;100751.58;1817609;77;21745;-66
2021/09/27 05:38:25;;;;;;;6.00;1.50;;;;;;;13.93;63.25;100752.39;1816004;77;21283;-68
2021/09/27 05:41:37;;;;;;;2.65;1.20;;;;;;;13.86;63.79;100755.26;1777500;80;21385;-64
2021/09/27 05:45:01;;;;;;;4.03;1.30;;;;;;;13.76;64.16;100757.09;1768718;80;21184;-69
2021/09/27 05:47:54;;;;;;;2.10;1.30;;;;;;;13.66;64.49;100764.21;1789927;78;21117;-68
2021/09/27 05:50:36;;;;;;;4.25;1.40;;;;;;;13.58;64.99;100770.19;1797742;78;21136;-67
2021/09/27 05:53:31;;;;;;;1.72;1.30;;;;;;;13.54;65.33;100778.03;1787948;79;21148;-67
2021/09/27 05:56:27;;;;;;;4.25;1.30;;;;;;;13.54;65.38;100774.56;1771061;79;21286;-70
2021/09/27 05:59:35;;;;;;;4.35;1.25;;;;;;;13.49;65.60;100778.42;1803751;79;21232;-69
2021/09/27 06:02:39;;;;;;;1.50;1.30;;;;;;;13.48;65.93;100782.05;1759047;80;21160;-68
2021/09/27 06:05:26;;;;;;;1.25;1.00;;;;;;;13.51;65.98;100782.25;1767098;79;21318;-65
2021/09/27 06:08:26;;;;;;;2.37;1.25;;;;;;;13.48;66.19;100786.47;1777881;79;21310;-69
2021/09/27 06:11:34;;;;;;;2.77;1.10;;;;;;;13.48;66.44;100791.25;1752548;79;21652;-68
2021/09/27 06:14:07;;;;;;;1.52;1.00;;;;;;;13.48;66.39;100797.83;1791940;79;21169;-59
2021/09/27 06:17:31;;;;;;;2.65;1.07;;;;;;;13.49;66.49;100790.26;1781062;79;21310;-60
2021/09/27 06:20:21;;;;;;;0.90;0.75;;;;;;;13.53;66.59;100784.72;1777004;79;21196;-65
2021/09/27 06:23:27;;;;;;;1.40;0.90;;;;;;;13.53;66.52;100793.45;1777429;79;21171;-64
2021/09/27 06:26:08;;;;;;;2.83;1.00;;;;;;;13.55;66.57;100792.81;1780420;79;21278;-69
2021/09/27 06:28:54;;;;;;;0.98;0.80;;;;;;;13.55;66.57;100792.81;1788108;79;22342;-67
2021/09/27 06:31:43;;;;;;;2.75;1.15;;;;;;;13.56;66.50;100801.07;1780026;79;21338;-70
2021/09/27 06:34:36;;;;;;;1.85;0.88;;;;;;;13.58;66.52;100797.80;1780673;79;21790;-70
2021/09/27 06:37:10;;;;;;;1.75;0.80;;;;;;;13.64;66.67;100799.85;1795988;79;21367;-69
2021/09/27 06:39:46;;;;;;;1.37;0.80;;;;;;;13.71;66.41;100797.50;1743529;79;21171;-68
2021/09/27 06:42:19;;;;;;;3.05;1.15;;;;;;;13.83;66.19;100814.27;1780242;79;21173;-69
2021/09/27 06:44:53;;;;;;;3.83;1.10;;;;;;;13.98;65.92;100802.31;1779606;79;21282;-67
2021/09/27 06:47:25;;;;;;;1.42;0.80;;;;;;;14.12;65.67;100810.22;1786246;79;21276;-68
2021/09/27 06:49:57;;;;;;;3.85;1.40;;;;;;;14.20;65.16;100806.38;1782574;79;21260;-69
2021/09/27 06:52:32;;;;;;;1.95;1.00;;;;;;;14.23;64.87;100817.95;1800570;79;21306;-69
2021/09/27 06:55:08;;;;;;;1.00;0.90;;;;;;;14.23;64.43;100814.48;1792313;79;21224;-69
2021/09/27 06:57:43;;;;;;;3.72;1.10;;;;;;;14.21;64.37;100821.19;1767596;79;21225;-71
2021/09/27 07:00:17;;;;;;;2.52;1.00;;;;;;;14.25;64.42;100816.48;1769946;79;21958;-69
2021/09/27 07:02:50;;;;;;;1.37;0.93;;;;;;;14.29;64.34;100820.47;1767206;79;21315;-67
2021/09/27 07:05:24;;;;;;;;;;;;;;;14.35;64.22;100822.08;1784917;79;21238;-71
2021/09/27 07:07:56;;;;;;;1.57;1.07;;;;;;;14.45;64.22;100822.84;1786623;78;20608;-68
2021/09/27 07:10:33;;;;;;;4.08;1.20;;;;;;;14.52;63.99;100824.42;1788117;78;21303;-65
2021/09/27 07:13:06;;;;;;;1.73;0.93;;;;;;;14.59;63.72;100826.80;1796383;79;21770;-69
2021/09/27 07:15:39;;;;;;;1.72;1.00;;;;;;;14.59;63.72;100826.80;1780060;79;21713;-69
2021/09/27 07:18:15;;;;;;;1.87;1.17;;;;;;;14.60;63.06;100822.69;1789817;78;21277;-71
2021/09/27 07:20:49;;;;;;;1.15;0.80;;;;;;;14.60;63.21;100827.96;1795039;79;21342;-67
2021/09/27 07:23:23;;;;;;;1.60;1.30;;;;;;;14.61;63.17;100820.89;1763965;78;21196;-69
2021/09/27 07:25:57;;;;;;;1.00;0.90;;;;;;;14.58;63.09;100830.40;1753570;80;21258;-69
2021/09/27 07:28:35;;;;;;;1.85;0.90;;;;;;;14.57;63.07;100832.20;1777923;79;21184;-68
2021/09/27 07:31:09;;;;;;;2.35;1.02;;;;;;;14.60;63.02;100827.96;1792059;78;21287;-69
2021/09/27 07:33:43;;;;;;;1.30;0.80;;;;;;;14.63;63.17;100831.62;1753978;78;21200;-68
2021/09/27 07:36:17;;;;;;;2.25;1.20;;;;;;;14.66;63.23;100843.16;1747372;78;21184;-67
2021/09/27 07:38:53;;;;;;;2.75;0.80;;;;;;;14.67;62.98;100838.25;1763429;78;21161;-71
2021/09/27 07:41:30;;;;;;;1.62;0.88;;;;;;;14.65;63.06;100842.84;1760092;79;21137;-67
2021/09/27 07:44:05;;;;;;;2.40;1.00;;;;;;;14.65;63.04;100845.96;1750452;80;21151;-64
2021/09/27 07:46:38;;;;;;;1.27;0.72;;;;;;;14.63;63.17;100848.75;1752982;81;21172;-65
2021/09/27 07:49:16;;;;;;;1.00;0.82;;;;;;;14.62;63.19;100844.93;1790860;78;21196;-68
2021/09/27 07:51:51;;;;;;;1.40;0.88;;;;;;;14.59;63.22;100848.69;1746331;79;21209;-69
2021/09/27 07:54:26;;;;;;;0.93;0.70;;;;;;;14.55;63.11;100853.92;1799288;78;21669;-69
2021/09/27 07:57:01;;;;;;;2.52;1.20;;;;;;;14.54;63.25;100851.45;1782747;79;21172;-70
2021/09/27 07:59:36;;;;;;;5.83;1.00;;;;;;;14.53;63.38;100854.56;1775526;79;21327;-70
2021/09/27 08:02:16;;;;;;;2.05;0.82;;;;;;;14.53;63.22;100864.27;1738592;82;22694;-66
2021/09/27 08:04:50;;;;;;;2.65;0.93;;;;;;;14.54;63.23;100856.72;1738395;81;21327;-68
2021/09/27 08:07:28;;;;;;;1.80;1.17;;;;;;;14.56;63.09;100862.18;1749548;80;21178;-65
2021/09/27 08:10:02;;;;;;;1.35;0.62;;;;;;;14.59;63.23;100858.42;1744997;81;22419;-68
2021/09/27 08:12:39;;;;;;;1.15;1.00;;;;;;;14.64;63.24;100855.66;1726523;82;21330;-70
2021/09/27 08:15:17;;;;;;;1.85;0.93;;;;;;;14.73;63.12;100861.39;1744081;81;21185;-69
2021/09/27 08:17:51;;;;;;;1.55;1.25;;;;;;;14.82;62.74;100867.57;1729668;81;21358;-69
2021/09/27 08:20:34;;;;;;;1.67;0.93;;;;;;;14.87;62.55;100865.80;1735230;81;21316;-69
2021/09/27 08:23:09;;;;;;;1.98;0.95;;;;;;;14.92;62.35;100863.55;1739762;81;21871;-67
2021/09/27 08:25:42;;;;;;;4.75;0.95;;;;;;;14.99;62.17;100869.89;1734611;82;21339;-68
2021/09/27 08:28:16;;;;;;;3.00;0.70;;;;;;;15.05;61.95;100866.16;1739617;81;21212;-71
2021/09/27 08:30:54;;;;;;;1.62;0.82;;;;;;;15.13;61.94;100860.97;1733244;81;21307;-63
2021/09/27 08:33:29;;;;;;;1.07;0.62;;;;;;;15.21;61.53;100866.81;1734054;81;21356;-67
2021/09/27 08:36:05;;;;;;;1.87;0.60;;;;;;;15.25;61.32;100874.27;1735168;82;21307;-69
2021/09/27 08:38:40;;;;;;;3.65;0.80;;;;;;;15.34;61.21;100871.20;1731967;82;21318;-70
2021/09/27 08:41:41;;;;;;;2.77;1.12;;;;;;;15.44;60.77;100871.51;1735360;81;21263;-69
2021/09/27 08:44:49;;;;;;;1.27;0.90;;;;;;;15.52;60.44;100877.34;1724634;82;21385;-72
2021/09/27 08:47:58;;;;;;;2.72;0.98;;;;;;;15.64;60.29;100883.20;1743148;82;21300;-72
2021/09/27 08:50:36;;;;;;;0.82;0.62;;;;;;;15.69;59.85;100884.39;1693880;84;21289;-70
2021/09/27 08:53:23;;;;;;;0.72;0.70;;;;;;;15.71;59.71;100882.93;1737474;81;21369;-67
2021/09/27 08:56:08;;;;;;;0.57;0.57;;;;;;;15.73;59.59;100886.23;1721067;81;21786;-70
2021/09/27 08:58:50;;;;;;;0.85;0.65;;;;;;;15.71;58.98;100881.61;1697892;81;21319;-66
2021/09/27 09:01:31;;;;;;;1.05;0.60;;;;;;;15.72;59.09;100893.81;1706464;82;21304;-68
2021/09/27 09:04:28;;;;;;;5.15;0.80;;;;;;;15.78;59.37;100883.97;1743173;81;22373;-67
2021/09/27 09:07:07;;;;;;;2.25;0.62;;;;;;;15.89;59.47;100886.34;1728838;81;21200;-63
2021/09/27 09:10:05;;;;;;;0.55;0.50;;;;;;;16.16;59.10;100878.28;1724974;82;21190;-67
2021/09/27 09:12:49;;;;;;;0.60;0.60;;;;;;;16.50;58.32;100875.12;1729475;82;21232;-66
2021/09/27 09:15:28;;;;;;;1.45;0.80;;;;;;;16.91;57.30;100868.18;1716056;82;21260;-64
2021/09/27 09:18:21;;;;;;;1.10;0.60;;;;;;;17.21;56.23;100866.27;1733051;82;21802;-64
2021/09/27 09:21:07;;;;;;;1.47;1.10;;;;;;;17.87;54.95;100866.10;1728766;82;21185;-64
2021/09/27 09:23:48;;;;;;;1.35;0.90;;;;;;;19.05;53.02;100869.97;1723236;82;21190;-62
2021/09/27 09:26:35;;;;;;;1.27;0.72;;;;;;;20.36;50.02;100872.14;1767782;79;21711;-64
2021/09/27 09:29:10;;;;;;;0.50;0.50;;;;;;;21.49;47.36;100865.25;1765262;79;21288;-63
2021/09/27 09:31:50;;;;;;;1.85;0.57;;;;;;;21.93;44.96;100873.81;1768332;79;21763;-66
2021/09/27 09:34:35;;;;;;;1.27;0.80;;;;;;;21.77;43.80;100869.25;1792050;79;21216;-64
2021/09/27 09:37:18;;;;;;;0.93;0.60;;;;;;;21.51;43.89;100867.20;1771560;79;21898;-61
2021/09/27 09:40:03;;;;;;;1.55;1.25;;;;;;;21.58;44.23;100861.42;1789220;79;21287;-62
2021/09/27 09:42:38;;;;;;;0.80;0.80;;;;;;;21.68;44.03;100863.25;1776405;79;21228;-63
2021/09/27 09:45:20;;;;;;;0.80;0.70;;;;;;;21.75;43.73;100864.63;1786685;79;21152;-63
2021/09/27 09:47:53;;;;;;;2.35;0.75;;;;;;;21.71;43.61;100865.51;1784419;79;21153;-62
2021/09/27 09:50:33;;;;;;;0.88;0.60;;;;;;;21.74;43.08;100871.80;1784217;79;21173;-61
2021/09/27 09:53:17;;;;;;;0.68;0.68;;;;;;;21.79;42.96;100864.55;1749316;81;21157;-62
2021/09/27 09:56:07;;;;;;;1.25;0.82;;;;;;;21.80;43.07;100871.04;1786504;79;21339;-64
2021/09/27 09:58:45;;;;;;;1.30;1.20;;;;;;;21.85;42.47;100860.63;1783518;79;21311;-65
2021/09/27 10:01:31;;;;;;;4.30;1.22;;;;;;;21.83;42.66;100858.62;1778848;79;21783;-65
2021/09/27 10:04:09;;;;;;;1.45;1.07;;;;;;;21.73;42.39;100858.67;1783012;79;21340;-65
2021/09/27 10:06:47;;;;;;;2.87;1.25;;;;;;;21.50;42.23;100861.55;1781739;79;21340;-64
2021/09/27 10:09:35;;;;;;;4.75;1.10;;;;;;;21.20;42.29;100868.88;1786045;79;21197;-66
2021/09/27 10:12:15;;;;;;;5.92;1.10;;;;;;;20.89;42.44;100865.64;1781850;79;21176;-64
2021/09/27 10:14:50;;;;;;;1.55;1.10;;;;;;;20.55;43.00;100870.25;1728480;81;21170;-64
2021/09/27 10:17:38;;;;;;;2.25;1.10;;;;;;;20.22;42.99;100874.77;1712947;82;21189;-67
2021/09/27 10:20:32;;;;;;;2.75;0.95;;;;;;;19.87;43.72;100879.77;1782518;79;21185;-66
2021/09/27 10:23:04;;;;;;;1.07;0.98;;;;;;;19.47;44.38;100870.84;1791335;79;21161;-67
2021/09/27 10:25:43;;;;;;;1.45;1.05;;;;;;;19.06;44.67;100880.89;1782174;79;21188;-63
2021/09/27 10:28:20;;;;;;;3.00;1.20;;;;;;;18.79;45.19;100878.75;1788374;79;21181;-71
2021/09/27 10:30:57;;;;;;;1.67;1.15;;;;;;;18.52;45.80;100882.69;1788743;79;21194;-69
2021/09/27 10:33:34;;;;;;;2.37;1.27;;;;;;;18.32;46.51;100893.84;1782069;79;21320;-68
2021/09/27 10:36:23;;;;;;;4.05;1.37;;;;;;;18.16;47.18;100883.59;1784815;79;21232;-68
2021/09/27 10:39:01;;;;;;;8.03;1.90;;;;;;;18.03;47.72;100883.80;1782148;79;21332;-66
2021/09/27 10:41:45;;;;;;;3.50;1.52;;;;;;;17.93;47.87;100881.34;1765793;79;21125;-67
2021/09/27 10:44:27;;;;;;;2.30;1.00;;;;;;;17.92;48.28;100891.59;1779271;79;21237;-69
2021/09/27 10:47:08;;;;;;;2.62;1.17;;;;;;;17.92;48.57;100888.11;1774169;79;21300;-70
2021/09/27 10:49:57;;;;;;;2.77;1.45;;;;;;;17.91;49.00;100887.28;1766238;79;21227;-71
2021/09/27 10:52:54;;;;;;;2.08;1.50;;;;;;;17.91;49.36;100880.66;1789090;79;21184;-72
2021/09/27 10:55:53;;;;;;;3.62;1.30;;;;;;;17.98;49.38;100882.95;1784986;79;21137;-69
2021/09/27 10:58:47;;;;;;;1.25;1.10;;;;;;;18.14;48.88;100875.00;1740850;80;21231;-69
2021/09/27 11:01:55;;;;;;;1.27;1.10;;;;;;;18.21;48.40;100888.88;1783350;79;21180;-68
2021/09/27 11:04:44;;;;;;;1.35;1.12;;;;;;;18.16;48.25;100883.59;1785861;79;21276;-65
2021/09/27 11:07:24;;;;;;;1.20;1.10;;;;;;;18.04;48.90;100888.92;1785203;79;21353;-67
2021/09/27 11:09:58;;;;;;;1.72;1.00;;;;;;;17.84;49.25;100894.24;1786475;79;21307;-66
2021/09/27 11:12:43;;;;;;;3.35;1.40;;;;;;;17.59;49.69;100895.27;1773252;79;21204;-69
2021/09/27 11:15:32;;;;;;;2.27;1.37;;;;;;;17.30;50.28;100898.84;1796166;79;21295;-71
2021/09/27 11:18:18;;;;;;;0.95;0.88;;;;;;;16.99;50.93;100901.27;1785496;79;21141;-70
2021/09/27 11:20:58;;;;;;;1.75;1.00;;;;;;;16.71;51.83;100912.60;1791275;79;21165;-69
2021/09/27 11:23:37;;;;;;;1.40;0.90;;;;;;;16.52;52.63;100912.02;1792383;79;21311;-68
2021/09/27 11:26:24;;;;;;;1.17;0.80;;;;;;;16.36;53.14;100915.36;1789494;79;21220;-67
2021/09/27 11:29:17;;;;;;;0.72;0.72;;;;;;;16.22;53.61;100919.07;1793506;79;21272;-65
2021/09/27 11:32:22;;;;;;;3.65;1.05;;;;;;;16.11;54.10;100913.58;1792663;79;21262;-68
2021/09/27 11:35:33;;;;;;;1.62;1.10;;;;;;;16.05;54.66;100917.66;1795496;79;21265;-69
2021/09/27 11:38:32;;;;;;;1.50;0.90;;;;;;;16.07;55.05;100918.33;1790587;79;21342;-66
2021/09/27 11:41:18;;;;;;;2.80;1.00;;;;;;;16.14;55.31;100920.67;1791857;79;21264;-70
2021/09/27 11:44:08;;;;;;;1.98;0.90;;;;;;;16.24;55.36;100922.41;1793061;79;21252;-63
2021/09/27 11:47:11;;;;;;;1.22;0.98;;;;;;;16.35;55.31;100920.81;1791799;79;21267;-67
2021/09/27 11:50:03;;;;;;;1.82;1.32;;;;;;;16.44;54.87;100924.66;1790914;79;21286;-74
2021/09/27 11:52:54;;;;;;;1.62;1.25;;;;;;;16.53;54.46;100922.42;1794907;79;21176;-64
2021/09/27 11:55:38;;;;;;;1.47;1.30;;;;;;;16.61;54.23;100926.44;1793768;79;21207;-67
2021/09/27 11:58:24;;;;;;;;;;;;;;;16.73;54.04;100923.01;1790299;79;21260;-64
2021/09/27 12:01:06;;;;;;;;;;;;;;;16.84;54.02;100919.58;1797459;79;20200;-67
2021/09/27 12:04:04;;;;;;;1.70;1.30;;;;;;;16.97;53.89;100913.84;1793467;79;20671;-66
2021/09/27 12:06:51;;;;;;;2.05;1.45;;;;;;;17.05;53.87;100931.03;1796318;79;21715;-65
2021/09/27 12:09:50;;;;;;;1.27;1.17;;;;;;;17.03;55.76;100942.80;1791341;79;21787;-69
2021/09/27 12:12:27;;;;;;;1.70;1.27;;;;;;;16.87;57.18;100946.20;1785645;79;21171;-68
2021/09/27 12:15:04;;;;;;;2.58;1.50;;;;;;;16.67;58.34;100949.58;1781548;79;21346;-65
2021/09/27 12:17:41;;;;;;;2.75;2.05;;;;;;;16.51;59.64;100942.90;1787277;79;21141;-65
2021/09/27 12:20:24;;;;;;;2.27;1.70;;;;;;;16.38;60.54;100940.33;1778629;79;21162;-67
2021/09/27 12:22:58;;;;;;;2.52;1.72;;;;;;;16.25;61.28;100942.06;1781119;79;21157;-61
2021/09/27 12:25:39;;;;;;;1.92;1.70;;;;;;;16.13;61.47;100938.02;1780525;79;21166;-65
2021/09/27 12:28:17;;;;;;;2.62;1.87;;;;;;;16.04;61.72;100941.11;1785873;79;21783;-65
2021/09/27 12:31:00;;;;;;;2.37;1.90;;;;;;;15.97;62.16;100942.70;1781435;79;21292;-68
2021/09/27 12:33:35;;;;;;;1.98;1.60;;;;;;;15.88;62.77;100937.52;1785761;79;21325;-66
2021/09/27 12:36:16;;;;;;;3.60;2.10;;;;;;;15.79;63.37;100941.05;1775502;79;21794;-63
2021/09/27 12:38:52;;;;;;;4.08;2.20;;;;;;;15.74;63.78;100933.59;1783155;79;21244;-67
2021/09/27 12:41:28;;;;;;;2.60;1.98;;;;;;;15.75;64.24;100932.63;1787303;79;21252;-66
2021/09/27 12:44:14;;;;;;;6.30;2.27;;;;;;;15.78;64.50;100930.17;1784452;79;21362;-68
2021/09/27 12:46:51;;;;;;;1.77;1.67;;;;;;;15.82;64.65;100936.31;1776184;79;21564;-66
2021/09/27 12:49:41;;;;;;;2.87;2.10;;;;;;;15.85;64.82;100927.26;1779274;79;21287;-65
2021/09/27 12:52:26;;;;;;;3.72;2.67;;;;;;;15.88;65.01;100928.28;1780734;79;21150;-67
2021/09/27 12:55:03;;;;;;;3.92;3.05;;;;;;;15.90;65.17;100928.46;1742677;80;21272;-67
2021/09/27 12:57:49;;;;;;;5.97;3.52;;;;;;;15.94;65.34;100926.33;1763656;79;21196;-66
2021/09/27 13:00:34;;;;;;;4.20;2.98;;;;;;;15.95;65.26;100927.48;1787948;79;21220;-66
2021/09/27 13:03:09;;;;;;;6.87;3.25;;;;;;;15.95;65.27;100937.23;1786014;79;21221;-66
2021/09/27 13:05:52;;;;;;;5.75;3.52;;;;;;;15.93;65.42;100932.61;1782378;79;21216;-67